Terminal Aerodrome Forecast
Issued by NWS

Home | Current Version | Previous Version | Text Only | Print | Product List | Glossary On
Versions: 1 2 3 4 5 6 7 8 9 10 11 12 13 14 15 16 17 18 19
961
FTAK31 PAJN 162332
TAFAKT
TAF
PAKT 162332Z 1700/1724 12007KT P6SM VCSH FEW007 SCT015 OVC023
     FM170600 VRB05KT P6SM VCSH SCT025 OVC050
     FM171200 VRB05KT 2SM BR BKN007 OVC015
     FM171500 14006KT P6SM VCSH SCT007 OVC015
     FM172100 12010KT P6SM -SHRA SCT015 BKN030 OVC050
      AMD LTD TO CLD VIS AND WIND 1706/1715=

USA.gov is the U.S. government's official web portal to all federal, state and local government web resources and services.